sensor_id;sensor_type;location;lat;lon;timestamp;P1;durP1;ratioP1;P2;durP2;ratioP2
25984;SDS011;66753;53.848;10.658;2023-04-03T00:00:03;2.88;;;1.10;;
25984;SDS011;66753;53.848;10.658;2023-04-03T00:15:06;3.17;;;1.07;;
25984;SDS011;66753;53.848;10.658;2023-04-03T00:30:08;2.87;;;1.27;;
25984;SDS011;66753;53.848;10.658;2023-04-03T01:00:12;4.75;;;1.67;;
25984;SDS011;66753;53.848;10.658;2023-04-03T01:15:20;4.43;;;1.43;;
25984;SDS011;66753;53.848;10.658;2023-04-03T01:30:24;5.53;;;1.60;;
25984;SDS011;66753;53.848;10.658;2023-04-03T01:45:28;1.73;;;0.73;;
25984;SDS011;66753;53.848;10.658;2023-04-03T02:00:28;3.22;;;1.15;;
25984;SDS011;66753;53.848;10.658;2023-04-03T02:15:29;5.33;;;1.10;;
25984;SDS011;66753;53.848;10.658;2023-04-03T02:30:30;4.95;;;1.05;;
25984;SDS011;66753;53.848;10.658;2023-04-03T02:45:30;4.13;;;1.13;;
25984;SDS011;66753;53.848;10.658;2023-04-03T03:00:31;3.78;;;1.15;;
25984;SDS011;66753;53.848;10.658;2023-04-03T03:15:31;2.95;;;0.98;;
25984;SDS011;66753;53.848;10.658;2023-04-03T03:30:32;4.35;;;1.20;;
25984;SDS011;66753;53.848;10.658;2023-04-03T03:45:32;2.33;;;0.70;;
25984;SDS011;66753;53.848;10.658;2023-04-03T04:00:33;3.08;;;1.05;;
25984;SDS011;66753;53.848;10.658;2023-04-03T04:15:33;3.88;;;0.80;;
25984;SDS011;66753;53.848;10.658;2023-04-03T04:30:33;2.97;;;1.15;;
25984;SDS011;66753;53.848;10.658;2023-04-03T04:45:34;7.15;;;1.60;;
25984;SDS011;66753;53.848;10.658;2023-04-03T05:00:34;4.15;;;1.38;;
25984;SDS011;66753;53.848;10.658;2023-04-03T05:15:35;4.00;;;1.55;;
25984;SDS011;66753;53.848;10.658;2023-04-03T05:30:35;4.70;;;1.45;;
25984;SDS011;66753;53.848;10.658;2023-04-03T05:45:36;8.45;;;2.00;;
25984;SDS011;66753;53.848;10.658;2023-04-03T06:00:36;3.60;;;1.17;;
25984;SDS011;66753;53.848;10.658;2023-04-03T06:15:37;3.42;;;1.17;;
25984;SDS011;66753;53.848;10.658;2023-04-03T06:30:38;5.20;;;1.83;;
25984;SDS011;66753;53.848;10.658;2023-04-03T06:45:39;4.63;;;1.52;;
25984;SDS011;66753;53.848;10.658;2023-04-03T07:00:39;1.75;;;0.80;;
25984;SDS011;66753;53.848;10.658;2023-04-03T07:15:39;2.38;;;0.55;;
25984;SDS011;66753;53.848;10.658;2023-04-03T07:30:44;3.15;;;0.70;;
25984;SDS011;66753;53.848;10.658;2023-04-03T07:45:46;2.10;;;0.50;;
25984;SDS011;66753;53.848;10.658;2023-04-03T08:00:49;2.43;;;0.40;;
25984;SDS011;66753;53.848;10.658;2023-04-03T08:15:50;2.77;;;0.50;;
25984;SDS011;66753;53.848;10.658;2023-04-03T08:30:51;4.37;;;1.33;;
25984;SDS011;66753;53.848;10.658;2023-04-03T08:45:53;4.75;;;1.48;;
25984;SDS011;66753;53.848;10.658;2023-04-03T09:00:58;1.93;;;0.30;;
25984;SDS011;66753;53.848;10.658;2023-04-03T09:16:01;1.57;;;0.33;;
25984;SDS011;66753;53.848;10.658;2023-04-03T09:31:14;1.97;;;0.30;;
25984;SDS011;66753;53.848;10.658;2023-04-03T09:46:18;1.60;;;0.40;;
25984;SDS011;66753;53.848;10.658;2023-04-03T10:32:21;1.47;;;0.30;;
25984;SDS011;66753;53.848;10.658;2023-04-03T10:47:19;2.67;;;0.37;;
25984;SDS011;66753;53.848;10.658;2023-04-03T11:02:30;2.00;;;0.50;;
25984;SDS011;66753;53.848;10.658;2023-04-03T11:17:33;1.30;;;0.27;;
25984;SDS011;66753;53.848;10.658;2023-04-03T11:47:48;0.60;;;0.20;;
25984;SDS011;66753;53.848;10.658;2023-04-03T12:02:50;1.57;;;0.30;;
25984;SDS011;66753;53.848;10.658;2023-04-03T12:17:51;2.63;;;0.40;;
25984;SDS011;66753;53.848;10.658;2023-04-03T12:32:57;2.97;;;0.85;;
25984;SDS011;66753;53.848;10.658;2023-04-03T12:48:06;1.27;;;0.30;;
25984;SDS011;66753;53.848;10.658;2023-04-03T13:03:23;1.60;;;0.20;;
25984;SDS011;66753;53.848;10.658;2023-04-03T13:18:31;1.63;;;0.40;;
25984;SDS011;66753;53.848;10.658;2023-04-03T13:33:34;2.87;;;0.50;;
25984;SDS011;66753;53.848;10.658;2023-04-03T14:18:47;1.47;;;0.70;;
25984;SDS011;66753;53.848;10.658;2023-04-03T14:33:49;4.90;;;0.90;;
25984;SDS011;66753;53.848;10.658;2023-04-03T14:48:51;2.63;;;0.53;;
25984;SDS011;66753;53.848;10.658;2023-04-03T15:03:51;1.23;;;0.40;;
25984;SDS011;66753;53.848;10.658;2023-04-03T15:18:52;1.60;;;0.45;;
25984;SDS011;66753;53.848;10.658;2023-04-03T15:33:52;1.80;;;0.47;;
25984;SDS011;66753;53.848;10.658;2023-04-03T15:48:53;3.30;;;0.63;;
25984;SDS011;66753;53.848;10.658;2023-04-03T16:03:53;3.97;;;0.98;;
25984;SDS011;66753;53.848;10.658;2023-04-03T16:18:54;4.38;;;0.50;;
25984;SDS011;66753;53.848;10.658;2023-04-03T16:33:55;2.00;;;0.57;;
25984;SDS011;66753;53.848;10.658;2023-04-03T16:48:56;1.88;;;0.57;;
25984;SDS011;66753;53.848;10.658;2023-04-03T17:03:56;2.92;;;0.70;;
25984;SDS011;66753;53.848;10.658;2023-04-03T17:18:57;3.60;;;0.90;;
25984;SDS011;66753;53.848;10.658;2023-04-03T17:33:58;3.57;;;1.07;;
25984;SDS011;66753;53.848;10.658;2023-04-03T17:49:00;4.87;;;0.70;;
25984;SDS011;66753;53.848;10.658;2023-04-03T18:04:03;1.73;;;0.30;;
25984;SDS011;66753;53.848;10.658;2023-04-03T18:19:04;3.70;;;0.77;;
25984;SDS011;66753;53.848;10.658;2023-04-03T18:34:06;1.87;;;0.77;;
25984;SDS011;66753;53.848;10.658;2023-04-03T18:49:07;2.33;;;0.85;;
25984;SDS011;66753;53.848;10.658;2023-04-03T19:04:08;2.47;;;0.60;;
25984;SDS011;66753;53.848;10.658;2023-04-03T19:19:09;2.58;;;0.40;;
25984;SDS011;66753;53.848;10.658;2023-04-03T19:34:10;4.38;;;0.77;;
25984;SDS011;66753;53.848;10.658;2023-04-03T19:49:10;2.90;;;0.80;;
25984;SDS011;66753;53.848;10.658;2023-04-03T20:04:11;2.22;;;0.73;;
25984;SDS011;66753;53.848;10.658;2023-04-03T20:19:11;2.58;;;0.82;;
25984;SDS011;66753;53.848;10.658;2023-04-03T20:34:12;5.10;;;1.00;;
25984;SDS011;66753;53.848;10.658;2023-04-03T20:49:13;8.03;;;2.73;;
25984;SDS011;66753;53.848;10.658;2023-04-03T21:19:50;4.90;;;1.13;;
25984;SDS011;66753;53.848;10.658;2023-04-03T21:34:52;6.33;;;1.43;;
25984;SDS011;66753;53.848;10.658;2023-04-03T21:49:52;4.95;;;1.60;;
25984;SDS011;66753;53.848;10.658;2023-04-03T22:04:54;4.43;;;1.70;;
25984;SDS011;66753;53.848;10.658;2023-04-03T22:19:55;3.67;;;1.50;;
25984;SDS011;66753;53.848;10.658;2023-04-03T22:34:56;5.15;;;2.42;;
25984;SDS011;66753;53.848;10.658;2023-04-03T22:49:56;7.53;;;2.70;;
25984;SDS011;66753;53.848;10.658;2023-04-03T23:04:57;6.65;;;2.47;;
25984;SDS011;66753;53.848;10.658;2023-04-03T23:20:00;5.77;;;2.47;;
25984;SDS011;66753;53.848;10.658;2023-04-03T23:35:01;4.97;;;2.08;;
25984;SDS011;66753;53.848;10.658;2023-04-03T23:50:03;6.03;;;2.37;;
